createdAt,value
2022-09-05T00:04:25.192Z,0.63
2022-09-05T00:09:46.102Z,0.55
2022-09-05T00:15:23.505Z,0.68
2022-09-05T00:24:32.507Z,0.63
2022-09-05T00:26:32.106Z,0.50
2022-09-05T00:32:18.450Z,0.50
2022-09-05T00:37:35.196Z,0.70
2022-09-05T00:42:37.647Z,0.80
2022-09-05T00:47:55.525Z,0.77
2022-09-05T00:53:08.964Z,1.17
2022-09-05T00:58:35.271Z,0.80
2022-09-05T01:04:05.783Z,0.70
2022-09-05T01:09:11.779Z,0.77
2022-09-05T01:14:30.117Z,0.70
2022-09-05T01:20:31.343Z,0.90
2022-09-05T01:25:55.534Z,0.95
2022-09-05T01:31:23.880Z,0.70
2022-09-05T01:36:49.969Z,0.90
2022-09-05T01:41:59.154Z,0.98
2022-09-05T01:47:09.658Z,0.70
2022-09-05T01:52:59.400Z,0.80
2022-09-05T01:58:42.416Z,0.70
2022-09-05T02:03:53.633Z,0.77
2022-09-05T02:09:23.224Z,1.27
2022-09-05T02:14:56.430Z,0.60
2022-09-05T02:20:26.678Z,0.63
2022-09-05T02:26:01.964Z,0.70
2022-09-05T02:31:42.713Z,1.00
2022-09-05T02:37:08.699Z,0.70
2022-09-05T02:45:19.933Z,0.70
2022-09-05T02:48:25.412Z,0.82
2022-09-05T02:57:46.250Z,0.80
2022-09-05T02:59:09.606Z,0.82
2022-09-05T03:04:33.874Z,0.75
2022-09-05T03:09:58.941Z,0.75
2022-09-05T03:15:23.232Z,0.80
2022-09-05T03:20:51.349Z,0.75
2022-09-05T03:26:23.401Z,0.88
2022-09-05T03:32:05.852Z,1.10
2022-09-05T03:37:31.707Z,0.90
2022-09-05T03:42:42.891Z,1.10
2022-09-05T03:48:02.379Z,0.98
2022-09-05T03:57:24.065Z,0.98
2022-09-05T03:59:46.370Z,1.05
2022-09-05T04:08:18.632Z,1.02
2022-09-05T04:10:51.271Z,0.98
2022-09-05T04:16:14.262Z,1.10
2022-09-05T04:21:30.279Z,0.85
2022-09-05T04:27:14.433Z,0.82
2022-09-05T04:32:23.646Z,1.02
2022-09-05T04:37:48.606Z,1.25
2022-09-05T04:42:51.669Z,1.02
2022-09-05T04:47:55.589Z,1.42
2022-09-05T04:53:40.744Z,1.02
2022-09-05T05:00:08.947Z,0.88
2022-09-05T05:06:18.702Z,1.42
2022-09-05T05:10:06.452Z,1.10
2022-09-05T05:18:07.943Z,1.02
2022-09-05T05:21:07.028Z,1.38
2022-09-05T05:26:13.197Z,1.38
2022-09-05T05:31:18.807Z,1.07
2022-09-05T05:36:32.793Z,0.82
2022-09-05T05:41:45.542Z,1.35
2022-09-05T05:46:59.680Z,1.10
2022-09-05T05:52:31.978Z,1.10
2022-09-05T05:57:35.100Z,1.40
2022-09-05T06:03:24.863Z,1.55
2022-09-05T06:11:11.014Z,1.15
2022-09-05T06:15:10.650Z,1.30
2022-09-05T06:22:08.492Z,1.27
2022-09-05T06:26:18.945Z,1.40
2022-09-05T06:31:31.085Z,1.25
2022-09-05T06:36:52.354Z,1.38
2022-09-05T06:42:42.606Z,1.25
2022-09-05T06:47:47.342Z,1.42
2022-09-05T06:53:27.863Z,1.48
2022-09-05T06:59:10.063Z,0.88
2022-09-05T07:05:00.867Z,1.20
2022-09-05T07:09:55.839Z,1.23
2022-09-05T07:15:27.605Z,1.05
2022-09-05T07:21:15.737Z,0.75
2022-09-05T07:25:59.690Z,0.80
2022-09-05T07:31:06.402Z,0.60
2022-09-05T07:36:17.183Z,0.75
2022-09-05T07:41:24.362Z,0.50
2022-09-05T07:46:33.751Z,0.50
2022-09-05T07:56:52.883Z,0.40
2022-09-05T08:02:26.094Z,0.50
2022-09-05T08:07:46.471Z,0.50
2022-09-05T08:13:33.910Z,0.50
2022-09-05T08:19:27.765Z,0.40
2022-09-05T08:24:37.561Z,0.50
2022-09-05T08:29:43.403Z,0.60
2022-09-05T08:34:54.497Z,0.50
2022-09-05T08:40:13.716Z,0.40
2022-09-05T08:46:42.292Z,0.60
2022-09-05T08:51:24.593Z,0.43
2022-09-05T08:57:10.293Z,0.57
2022-09-05T09:02:46.574Z,0.65
2022-09-05T09:08:04.424Z,0.30
2022-09-05T09:13:18.580Z,0.52
2022-09-05T09:18:22.349Z,0.40
2022-09-05T09:23:44.875Z,0.40
2022-09-05T09:29:04.000Z,0.30
2022-09-05T09:34:20.545Z,0.40
2022-09-05T09:40:03.769Z,0.32
2022-09-05T09:45:41.338Z,0.50
2022-09-05T09:51:01.896Z,0.32
2022-09-05T09:56:15.931Z,0.45
2022-09-05T10:01:53.293Z,0.30
2022-09-05T10:10:46.168Z,0.40
2022-09-05T10:13:10.642Z,0.40
2022-09-05T10:18:39.571Z,0.40
2022-09-05T10:23:49.724Z,0.82
2022-09-05T10:29:37.441Z,0.30
2022-09-05T10:35:22.428Z,0.40
2022-09-05T10:40:27.595Z,0.40
2022-09-05T10:45:49.522Z,0.40
2022-09-05T10:51:00.709Z,0.40
2022-09-05T10:56:23.115Z,0.50
2022-09-05T11:02:26.101Z,0.43
2022-09-05T11:08:12.962Z,0.40
2022-09-05T11:13:37.988Z,0.40
2022-09-05T11:18:58.153Z,0.50
2022-09-05T11:24:12.199Z,0.50
2022-09-05T11:29:24.609Z,0.40
2022-09-05T11:39:57.848Z,0.43
2022-09-05T11:40:56.890Z,0.40
2022-09-05T11:46:20.593Z,0.65
2022-09-05T11:51:54.442Z,0.40
2022-09-05T11:57:38.695Z,0.40
2022-09-05T12:02:58.010Z,0.50
2022-09-05T12:08:36.811Z,0.40
2022-09-05T12:19:19.712Z,0.38
2022-09-05T12:25:27.474Z,0.30
2022-09-05T12:30:57.224Z,0.20
2022-09-05T12:40:04.959Z,0.30
2022-09-05T12:42:13.739Z,0.30
2022-09-05T12:47:24.002Z,0.40
2022-09-05T12:52:42.453Z,0.40
2022-09-05T13:02:18.645Z,0.30
2022-09-05T13:03:26.953Z,0.30
2022-09-05T13:08:43.905Z,0.40
2022-09-05T13:14:55.596Z,0.30
2022-09-05T13:19:45.792Z,0.30
2022-09-05T13:24:58.869Z,0.20
2022-09-05T13:31:42.058Z,0.20
2022-09-05T13:38:08.169Z,0.40
2022-09-05T13:41:01.880Z,0.20
2022-09-05T13:46:12.852Z,0.40
2022-09-05T14:05:05.807Z,0.30
2022-09-05T14:10:35.945Z,0.20
2022-09-05T14:15:53.920Z,0.25
2022-09-05T14:21:18.106Z,0.30
2022-09-05T14:26:30.816Z,0.30
2022-09-05T14:37:38.657Z,0.30
2022-09-05T14:37:39.368Z,0.35
2022-09-05T14:43:14.098Z,0.30
2022-09-05T14:48:59.254Z,0.25
2022-09-05T15:02:48.107Z,0.30
2022-09-05T15:05:17.298Z,0.28
2022-09-05T15:12:15.726Z,0.30
2022-09-05T15:16:02.148Z,0.57
2022-09-05T15:21:33.347Z,0.30
2022-09-05T15:26:53.275Z,0.30
2022-09-05T15:32:17.822Z,0.30
2022-09-05T15:37:36.682Z,0.40
2022-09-05T15:42:43.708Z,0.30
2022-09-05T15:47:59.692Z,0.35
2022-09-05T15:53:01.673Z,0.28
2022-09-05T15:58:06.724Z,0.40
2022-09-05T16:05:46.363Z,0.68
2022-09-05T16:10:39.980Z,0.63
2022-09-05T16:14:19.926Z,0.43
2022-09-05T16:23:28.091Z,0.30
2022-09-05T16:25:00.971Z,1.00
2022-09-05T16:30:05.456Z,0.63
2022-09-05T16:35:18.098Z,0.52
2022-09-05T16:40:31.561Z,0.40
2022-09-05T16:45:54.881Z,0.50
2022-09-05T16:51:16.982Z,0.50
2022-09-05T16:56:44.813Z,0.60
2022-09-05T17:02:30.346Z,0.40
2022-09-05T17:08:09.526Z,0.40
2022-09-05T17:13:37.061Z,0.30
2022-09-05T17:18:39.649Z,0.68
2022-09-05T17:28:30.009Z,0.60
2022-09-05T17:35:17.214Z,0.80
2022-09-05T17:40:52.107Z,1.00
2022-09-05T17:46:09.693Z,0.60
2022-09-05T17:51:11.588Z,0.73
2022-09-05T17:56:28.083Z,0.50
2022-09-05T18:01:32.286Z,0.50
2022-09-05T18:06:37.286Z,0.50
2022-09-05T18:11:44.903Z,0.70
2022-09-05T18:17:35.562Z,0.63
2022-09-05T18:22:33.479Z,0.55
2022-09-05T18:28:04.966Z,0.55
2022-09-05T18:33:56.354Z,0.60
2022-09-05T18:38:51.016Z,0.97
2022-09-05T18:44:13.739Z,0.65
2022-09-05T18:50:21.472Z,0.60
2022-09-05T18:56:09.360Z,0.60
2022-09-05T19:00:45.002Z,0.50
2022-09-05T19:05:55.568Z,0.65
2022-09-05T19:11:18.702Z,0.75
2022-09-05T19:16:43.303Z,0.52
2022-09-05T19:22:37.323Z,0.90
2022-09-05T19:31:52.835Z,0.50
2022-09-05T19:36:48.762Z,0.50
2022-09-05T19:38:11.287Z,0.88
2022-09-05T19:47:39.302Z,0.68
2022-09-05T19:48:41.877Z,0.43
2022-09-05T19:54:03.907Z,0.70
2022-09-05T19:59:17.096Z,0.73
2022-09-05T20:04:20.561Z,0.55
2022-09-05T20:09:24.756Z,0.70
2022-09-05T20:14:31.669Z,0.60
2022-09-05T20:19:35.262Z,0.65
2022-09-05T20:24:37.164Z,0.50
2022-09-05T20:30:02.423Z,0.77
2022-09-05T20:39:21.280Z,0.60
2022-09-05T20:43:21.348Z,0.50
2022-09-05T20:46:00.812Z,0.70
2022-09-05T20:54:25.870Z,0.60
2022-09-05T20:56:37.511Z,0.50
2022-09-05T21:01:42.567Z,0.70
2022-09-05T21:06:44.539Z,0.70
2022-09-05T21:11:50.654Z,0.60
2022-09-05T21:17:11.968Z,0.90
2022-09-05T21:22:17.414Z,0.50
2022-09-05T21:27:25.541Z,0.50
2022-09-05T21:32:38.247Z,0.65
2022-09-05T21:37:46.143Z,0.70
2022-09-05T21:47:38.087Z,0.60
2022-09-05T21:48:17.539Z,0.70
2022-09-05T21:59:16.813Z,0.60
2022-09-05T21:59:20.377Z,0.40
2022-09-05T22:04:41.055Z,0.50
2022-09-05T22:09:44.583Z,0.80
2022-09-05T22:14:46.908Z,0.50
2022-09-05T22:19:50.023Z,0.80
2022-09-05T22:25:01.844Z,0.63
2022-09-05T22:30:06.157Z,0.60
2022-09-05T22:35:27.490Z,0.50
2022-09-05T22:40:30.755Z,0.45
2022-09-05T22:45:35.022Z,0.60
2022-09-05T22:50:37.471Z,0.55
2022-09-05T22:55:41.553Z,0.70
2022-09-05T23:00:44.723Z,0.40
2022-09-05T23:05:46.621Z,0.40
2022-09-05T23:10:48.271Z,0.52
2022-09-05T23:15:50.714Z,0.65
2022-09-05T23:20:52.353Z,0.50
2022-09-05T23:25:53.999Z,0.68
2022-09-05T23:30:59.775Z,0.50
2022-09-05T23:36:03.515Z,0.40
2022-09-05T23:41:10.866Z,0.55
2022-09-05T23:46:13.247Z,0.60
2022-09-05T23:51:15.221Z,0.50
2022-09-05T23:56:16.843Z,0.77
